createdAt,value
2022-10-31T08:59:31.387Z,11.25
2022-10-31T09:01:58.143Z,11.26
2022-10-31T09:04:24.913Z,11.30
2022-10-31T09:07:19.727Z,11.32
2022-10-31T09:09:38.221Z,11.39
2022-10-31T09:12:32.941Z,11.46
2022-10-31T09:15:01.821Z,11.53
2022-10-31T09:17:31.942Z,11.60
2022-10-31T09:19:58.670Z,11.69
2022-10-31T09:22:27.608Z,11.74
2022-10-31T09:24:54.227Z,11.80
2022-10-31T09:27:20.747Z,11.86
2022-10-31T09:29:47.272Z,11.90
2022-10-31T09:32:13.810Z,11.96
2022-10-31T09:34:40.339Z,12.03
2022-10-31T09:37:06.827Z,12.10
2022-10-31T09:39:33.305Z,12.19
2022-10-31T09:42:10.166Z,12.27
2022-10-31T09:45:02.481Z,12.35
2022-10-31T09:47:47.837Z,12.43
2022-10-31T09:50:31.048Z,12.53
2022-10-31T09:55:53.436Z,12.64
2022-10-31T09:58:49.015Z,12.71
2022-10-31T10:04:40.505Z,12.88
2022-10-31T10:10:58.288Z,13.04
2022-10-31T10:31:23.453Z,13.37
2022-10-31T10:34:33.186Z,13.41
2022-10-31T10:40:55.697Z,13.50
2022-10-31T10:54:28.395Z,13.74
2022-10-31T11:03:43.077Z,13.99
2022-10-31T11:09:36.114Z,14.08
2022-10-31T11:12:18.319Z,14.12
2022-10-31T11:14:56.924Z,14.14
2022-10-31T11:17:31.764Z,14.17
2022-10-31T11:21:06.472Z,14.23
2022-10-31T12:36:34.357Z,14.94
2022-10-31T13:11:14.943Z,15.25
2022-10-31T13:13:53.252Z,15.26
2022-10-31T13:25:18.402Z,15.28
2022-10-31T14:01:15.941Z,15.57
2022-10-31T14:06:41.713Z,15.57
2022-10-31T14:09:21.832Z,15.54
2022-10-31T14:11:49.970Z,15.54
2022-10-31T14:14:17.699Z,15.53
2022-10-31T14:16:46.728Z,15.51
2022-10-31T14:19:20.817Z,15.50
2022-10-31T14:21:49.464Z,15.51
2022-10-31T14:24:33.471Z,15.49
2022-10-31T14:27:26.882Z,15.50
2022-10-31T14:29:53.817Z,15.47
2022-10-31T14:32:25.938Z,15.44
2022-10-31T14:34:58.577Z,15.45
2022-10-31T14:37:30.483Z,15.43
2022-10-31T14:40:13.846Z,15.43
2022-10-31T14:42:53.525Z,15.43
2022-10-31T14:45:32.141Z,15.43
2022-10-31T14:48:09.675Z,15.43
2022-10-31T14:50:50.565Z,15.41
2022-10-31T14:53:24.655Z,15.39
2022-10-31T14:55:55.122Z,15.40
2022-10-31T14:58:26.501Z,15.39
2022-10-31T15:00:57.214Z,15.38
2022-10-31T15:03:33.737Z,15.37
2022-10-31T15:06:12.115Z,15.34
2022-10-31T15:08:40.983Z,15.33
2022-10-31T15:11:13.076Z,15.34
2022-10-31T15:13:54.109Z,15.35
2022-10-31T15:16:25.357Z,15.34
2022-10-31T15:18:58.979Z,15.33
2022-10-31T15:21:29.283Z,15.32
2022-10-31T15:23:58.806Z,15.32
2022-10-31T15:26:33.591Z,15.29
2022-10-31T15:29:05.219Z,15.27
2022-10-31T15:31:32.196Z,15.24
2022-10-31T15:34:06.031Z,15.26
2022-10-31T15:36:37.420Z,15.23
2022-10-31T15:39:04.869Z,15.21
2022-10-31T15:41:54.193Z,15.19
2022-10-31T15:44:27.492Z,15.18
2022-10-31T15:46:57.133Z,15.15
2022-10-31T15:49:39.374Z,15.13
2022-10-31T15:52:18.431Z,15.11
2022-10-31T15:54:49.737Z,15.09
2022-10-31T15:57:17.646Z,15.08
2022-10-31T15:59:48.260Z,15.09
2022-10-31T16:02:20.435Z,15.08
2022-10-31T16:04:54.035Z,15.08
2022-10-31T16:07:59.537Z,15.08
2022-10-31T16:10:27.054Z,15.05
2022-10-31T16:12:56.068Z,15.03
2022-10-31T16:18:13.883Z,15.03
2022-10-31T16:20:40.450Z,15.02
2022-10-31T16:23:07.132Z,15.01
2022-10-31T16:25:39.242Z,14.98
2022-10-31T16:30:48.522Z,14.95
2022-10-31T16:33:26.144Z,14.93
2022-10-31T16:36:04.206Z,14.90
2022-10-31T16:38:36.265Z,14.88
2022-10-31T16:41:02.996Z,14.85
2022-10-31T16:43:29.546Z,14.83
2022-10-31T16:45:58.286Z,14.79
2022-10-31T16:48:24.847Z,14.74
2022-10-31T16:50:54.106Z,14.70
2022-10-31T16:53:20.892Z,14.66
2022-10-31T16:55:52.830Z,14.66
2022-10-31T16:58:23.777Z,14.62
2022-10-31T17:00:51.150Z,14.59
2022-10-31T17:03:17.838Z,14.54
2022-10-31T17:05:44.694Z,14.53
2022-10-31T17:08:11.741Z,14.51
2022-10-31T17:10:39.796Z,14.51
2022-10-31T17:13:11.760Z,14.52
2022-10-31T17:15:44.381Z,14.51
2022-10-31T17:18:17.016Z,14.48
2022-10-31T17:20:44.992Z,14.47
2022-10-31T17:23:13.446Z,14.47
2022-10-31T17:25:41.691Z,14.45
2022-10-31T17:28:12.848Z,14.43
2022-10-31T17:30:41.951Z,14.41
2022-10-31T17:33:12.950Z,14.38
2022-10-31T17:35:39.404Z,14.33
2022-10-31T17:38:05.862Z,14.29
2022-10-31T17:40:32.575Z,14.28
2022-10-31T17:43:01.732Z,14.27
2022-10-31T17:45:29.466Z,14.22
2022-10-31T17:47:56.004Z,14.20
2022-10-31T17:50:24.984Z,14.19
2022-10-31T17:52:51.856Z,14.18
2022-10-31T17:55:18.852Z,14.15
2022-10-31T17:57:46.057Z,14.14
2022-10-31T18:00:15.740Z,14.11
2022-10-31T18:02:42.679Z,14.07
2022-10-31T18:05:11.076Z,14.00
2022-10-31T18:07:41.846Z,13.97
2022-10-31T18:10:09.980Z,13.98
2022-10-31T18:12:38.834Z,13.96
2022-10-31T18:15:05.952Z,13.93
2022-10-31T18:17:32.728Z,13.96
2022-10-31T18:19:59.571Z,13.94
2022-10-31T18:22:26.048Z,13.93
2022-10-31T19:04:27.299Z,13.39
